Terminal Aerodrome Forecast
Issued by NWS Corpus Christi, TX

Home | Current Version | Previous Version | Text Only | Print | Product List | Glossary On
Versions: 1 2 3 4 5 6 7 8 9 10 11 12 13 14
000
FTUS44 KCRP 252300
TAFCRP
TAF
KCRP 252320Z 2600/2624 16017G25KT P6SM FEW070 BKN250
     FM260300 15008KT P6SM SCT020 SCT250
      TEMPO 2609/2612 BKN020
     FM261300 16006KT P6SM OVC020
     FM261700 17015G22KT P6SM OVC015=

USA.gov is the U.S. government's official web portal to all federal, state and local government web resources and services.